JNA224 RJAA-RKPK
Flight info
| Callsign | JNA224 |
|---|---|
| Flight time | 1h 41m |
| Altitude | 32000 |
| Route | ENPAR Y16 TEPEX Y22 MIHOU Y206 KALEK PEDLO2 |
| Aircraft | B738/M-SDE2E3FGHIRWXY/LB1 |
Departure
| Time | 2026-05-06 11:40 |
|---|---|
| Airport | Narita International Airport (RJAA) |
Arrival
| Time | 2026-05-06 13:21 |
|---|---|
| Airport | Gimhae International Airport (RKPK) |
| Time | Latitude | Longitude | Altitude | Speed | Heading |
|---|---|---|---|---|---|
| 2026-05-06 11:23 | 35.76395 | 140.38232 | 143 ft | 0 kts | 59° |
| 2026-05-06 11:32 | 35.76391 | 140.38223 | 143 ft | 4 kts | 60° |
| 2026-05-06 11:32 | 35.76377 | 140.38194 | 143 ft | 4 kts | 62° |
| 2026-05-06 11:33 | 35.76366 | 140.38164 | 143 ft | 4 kts | 68° |
| 2026-05-06 11:33 | 35.76358 | 140.38133 | 143 ft | 4 kts | 86° |
| 2026-05-06 11:33 | 35.76362 | 140.38108 | 143 ft | 3 kts | 146° |
| 2026-05-06 11:33 | 35.76364 | 140.38106 | 143 ft | 0 kts | 149° |
| 2026-05-06 11:35 | 35.76363 | 140.38106 | 143 ft | 1 kts | 149° |
| 2026-05-06 11:36 | 35.76336 | 140.38126 | 143 ft | 10 kts | 149° |
| 2026-05-06 11:36 | 35.76248 | 140.38123 | 143 ft | 18 kts | 240° |
| 2026-05-06 11:36 | 35.76322 | 140.38020 | 143 ft | 17 kts | 330° |
| 2026-05-06 11:36 | 35.76407 | 140.37927 | 143 ft | 17 kts | 278° |
| 2026-05-06 11:37 | 35.76453 | 140.37800 | 143 ft | 18 kts | 323° |
| 2026-05-06 11:37 | 35.76567 | 140.37717 | 143 ft | 20 kts | 329° |
| 2026-05-06 11:37 | 35.76696 | 140.37624 | 143 ft | 22 kts | 329° |
| 2026-05-06 11:37 | 35.76826 | 140.37530 | 143 ft | 21 kts | 329° |
| 2026-05-06 11:38 | 35.76951 | 140.37440 | 142 ft | 21 kts | 330° |
| 2026-05-06 11:38 | 35.77080 | 140.37346 | 142 ft | 23 kts | 329° |
| 2026-05-06 11:38 | 35.77226 | 140.37241 | 142 ft | 26 kts | 329° |
| 2026-05-06 11:38 | 35.77382 | 140.37128 | 142 ft | 25 kts | 329° |
| 2026-05-06 11:39 | 35.77489 | 140.36985 | 143 ft | 24 kts | 262° |
| 2026-05-06 11:39 | 35.77381 | 140.36880 | 142 ft | 23 kts | 160° |
| 2026-05-06 11:39 | 35.77174 | 140.37022 | 141 ft | 65 kts | 150° |
| 2026-05-06 11:39 | 35.76558 | 140.37466 | 144 ft | 138 kts | 149° |
| 2026-05-06 11:40 | 35.75609 | 140.38155 | 473 ft | 169 kts | 149° |
| 2026-05-06 11:40 | 35.74632 | 140.38881 | 1539 ft | 158 kts | 152° |
| 2026-05-06 11:40 | 35.73683 | 140.39556 | 2479 ft | 158 kts | 154° |
| 2026-05-06 11:40 | 35.72704 | 140.40247 | 3101 ft | 166 kts | 154° |
| 2026-05-06 11:41 | 35.71667 | 140.40980 | 3551 ft | 184 kts | 154° |
| 2026-05-06 11:41 | 35.70475 | 140.41824 | 3782 ft | 209 kts | 153° |
| 2026-05-06 11:41 | 35.69148 | 140.42772 | 3960 ft | 232 kts | 153° |
| 2026-05-06 11:41 | 35.67684 | 140.43824 | 4187 ft | 254 kts | 153° |
| 2026-05-06 11:42 | 35.66129 | 140.44952 | 4819 ft | 263 kts | 153° |
| 2026-05-06 11:42 | 35.64569 | 140.46086 | 5591 ft | 265 kts | 153° |
| 2026-05-06 11:42 | 35.62978 | 140.47245 | 6347 ft | 268 kts | 152° |
| 2026-05-06 11:42 | 35.61350 | 140.48422 | 6998 ft | 274 kts | 153° |
| 2026-05-06 11:43 | 35.59689 | 140.49618 | 7678 ft | 279 kts | 154° |
| 2026-05-06 11:43 | 35.58000 | 140.50835 | 8333 ft | 284 kts | 154° |
| 2026-05-06 11:43 | 35.56280 | 140.52071 | 9005 ft | 289 kts | 155° |
| 2026-05-06 11:44 | 35.52532 | 140.53412 | 10245 ft | 282 kts | 194° |
| 2026-05-06 11:44 | 35.50706 | 140.52568 | 10427 ft | 292 kts | 218° |
| 2026-05-06 11:44 | 35.49252 | 140.50758 | 10599 ft | 307 kts | 238° |
| 2026-05-06 11:44 | 35.48120 | 140.48457 | 10877 ft | 321 kts | 242° |
| 2026-05-06 11:45 | 35.47368 | 140.45863 | 11389 ft | 327 kts | 262° |
| 2026-05-06 11:45 | 35.47421 | 140.43067 | 12073 ft | 332 kts | 278° |
| 2026-05-06 11:45 | 35.48204 | 140.40384 | 12729 ft | 340 kts | 295° |
| 2026-05-06 11:45 | 35.49680 | 140.38063 | 13353 ft | 354 kts | 315° |
| 2026-05-06 11:46 | 35.51752 | 140.36358 | 14011 ft | 363 kts | 324° |
| 2026-05-06 11:46 | 35.53925 | 140.34835 | 14619 ft | 366 kts | 325° |
| 2026-05-06 11:46 | 35.56204 | 140.33402 | 15281 ft | 373 kts | 334° |
| 2026-05-06 11:46 | 35.58726 | 140.32534 | 15996 ft | 378 kts | 340° |
| 2026-05-06 11:47 | 35.61283 | 140.31755 | 16661 ft | 380 kts | 340° |
| 2026-05-06 11:47 | 35.63858 | 140.30961 | 17298 ft | 383 kts | 339° |
| 2026-05-06 11:47 | 35.66440 | 140.30141 | 17940 ft | 385 kts | 339° |
| 2026-05-06 11:47 | 35.69035 | 140.29298 | 18548 ft | 387 kts | 338° |
| 2026-05-06 11:48 | 35.71652 | 140.28438 | 19024 ft | 392 kts | 338° |
| 2026-05-06 11:48 | 35.74255 | 140.27408 | 19373 ft | 392 kts | 327° |
| 2026-05-06 11:48 | 35.76406 | 140.25519 | 19777 ft | 383 kts | 308° |
| 2026-05-06 11:48 | 35.77999 | 140.22948 | 20281 ft | 376 kts | 294° |
| 2026-05-06 11:49 | 35.78942 | 140.19987 | 20770 ft | 371 kts | 281° |
| 2026-05-06 11:49 | 35.79610 | 140.16915 | 21319 ft | 372 kts | 279° |
| 2026-05-06 11:49 | 35.80242 | 140.13819 | 21821 ft | 373 kts | 279° |
| 2026-05-06 11:49 | 35.80880 | 140.10712 | 22338 ft | 375 kts | 278° |
| 2026-05-06 11:50 | 35.81536 | 140.07598 | 22855 ft | 377 kts | 278° |
| 2026-05-06 11:50 | 35.82209 | 140.04475 | 23364 ft | 378 kts | 278° |
| 2026-05-06 11:50 | 35.82887 | 140.01345 | 23843 ft | 378 kts | 278° |
| 2026-05-06 11:50 | 35.83558 | 139.98254 | 24262 ft | 378 kts | 278° |
| 2026-05-06 11:51 | 35.84235 | 139.95124 | 24721 ft | 378 kts | 278° |
| 2026-05-06 11:51 | 35.84909 | 139.92000 | 25165 ft | 377 kts | 278° |
| 2026-05-06 11:51 | 35.85582 | 139.88875 | 25586 ft | 377 kts | 278° |
| 2026-05-06 11:51 | 35.86254 | 139.85746 | 25998 ft | 378 kts | 278° |
| 2026-05-06 11:52 | 35.86927 | 139.82615 | 26402 ft | 378 kts | 278° |
| 2026-05-06 11:52 | 35.87599 | 139.79479 | 26768 ft | 379 kts | 278° |
| 2026-05-06 11:52 | 35.88273 | 139.76330 | 27110 ft | 380 kts | 278° |
| 2026-05-06 11:52 | 35.88939 | 139.73215 | 27458 ft | 381 kts | 278° |
| 2026-05-06 11:53 | 35.89616 | 139.70049 | 27778 ft | 383 kts | 278° |
| 2026-05-06 11:53 | 35.90295 | 139.66872 | 28099 ft | 384 kts | 278° |
| 2026-05-06 11:53 | 35.90975 | 139.63681 | 28413 ft | 385 kts | 278° |
| 2026-05-06 11:53 | 35.91652 | 139.60481 | 28768 ft | 385 kts | 277° |
| 2026-05-06 11:54 | 35.92154 | 139.57270 | 29237 ft | 378 kts | 272° |
| 2026-05-06 11:54 | 35.92547 | 139.54077 | 29756 ft | 375 kts | 272° |
| 2026-05-06 11:54 | 35.92925 | 139.50910 | 30229 ft | 373 kts | 272° |
| 2026-05-06 11:54 | 35.93301 | 139.47752 | 30600 ft | 371 kts | 272° |
| 2026-05-06 11:55 | 35.93672 | 139.44645 | 30926 ft | 371 kts | 272° |
| 2026-05-06 11:55 | 35.94049 | 139.41499 | 31258 ft | 371 kts | 271° |
| 2026-05-06 11:55 | 35.94429 | 139.38345 | 31485 ft | 373 kts | 271° |
| 2026-05-06 11:55 | 35.94812 | 139.35168 | 31687 ft | 376 kts | 271° |
| 2026-05-06 11:56 | 35.95197 | 139.31973 | 31923 ft | 377 kts | 271° |
| 2026-05-06 11:56 | 35.95584 | 139.28777 | 32179 ft | 377 kts | 271° |
| 2026-05-06 11:56 | 35.96354 | 139.22371 | 32163 ft | 380 kts | 271° |
| 2026-05-06 11:57 | 35.97126 | 139.15968 | 32183 ft | 374 kts | 271° |
| 2026-05-06 11:57 | 35.97883 | 139.09625 | 32187 ft | 373 kts | 271° |
| 2026-05-06 11:58 | 35.98634 | 139.03294 | 32192 ft | 372 kts | 271° |
| 2026-05-06 11:58 | 35.99376 | 138.97011 | 32198 ft | 372 kts | 271° |
| 2026-05-06 11:59 | 36.00120 | 138.90683 | 32186 ft | 372 kts | 270° |
| 2026-05-06 11:59 | 36.00242 | 138.84390 | 32183 ft | 365 kts | 261° |
| 2026-05-06 12:00 | 35.99896 | 138.78132 | 32192 ft | 366 kts | 261° |
| 2026-05-06 12:00 | 35.99554 | 138.71902 | 32198 ft | 366 kts | 261° |
| 2026-05-06 12:01 | 35.99217 | 138.65632 | 32199 ft | 366 kts | 261° |
| 2026-05-06 12:01 | 35.98880 | 138.59359 | 32206 ft | 367 kts | 261° |
| 2026-05-06 12:02 | 35.98540 | 138.53056 | 32208 ft | 368 kts | 261° |
| 2026-05-06 12:02 | 35.98200 | 138.46787 | 32195 ft | 368 kts | 261° |
| 2026-05-06 12:03 | 35.97854 | 138.40484 | 32183 ft | 367 kts | 261° |
| 2026-05-06 12:03 | 35.97507 | 138.34214 | 32185 ft | 366 kts | 261° |
| 2026-05-06 12:04 | 35.97156 | 138.27944 | 32184 ft | 367 kts | 261° |
| 2026-05-06 12:04 | 35.96802 | 138.21695 | 32180 ft | 368 kts | 261° |
| 2026-05-06 12:05 | 35.96443 | 138.15392 | 32176 ft | 368 kts | 261° |
| 2026-05-06 12:05 | 35.96081 | 138.09087 | 32181 ft | 368 kts | 261° |
| 2026-05-06 12:06 | 35.95720 | 138.02813 | 32174 ft | 369 kts | 261° |
| 2026-05-06 12:06 | 35.95348 | 137.96496 | 32170 ft | 369 kts | 261° |
| 2026-05-06 12:07 | 35.94975 | 137.90201 | 32171 ft | 367 kts | 261° |
| 2026-05-06 12:07 | 35.94603 | 137.83952 | 32180 ft | 364 kts | 261° |
| 2026-05-06 12:08 | 35.94228 | 137.77725 | 32184 ft | 365 kts | 261° |
| 2026-05-06 12:08 | 35.93834 | 137.71526 | 32175 ft | 365 kts | 261° |
| 2026-05-06 12:09 | 35.93397 | 137.65273 | 32180 ft | 367 kts | 260° |
| 2026-05-06 12:09 | 35.92953 | 137.58976 | 32175 ft | 369 kts | 261° |
| 2026-05-06 12:10 | 35.92509 | 137.52660 | 32175 ft | 370 kts | 261° |
| 2026-05-06 12:10 | 35.92067 | 137.46377 | 32178 ft | 371 kts | 261° |
| 2026-05-06 12:11 | 35.91616 | 137.40031 | 32179 ft | 371 kts | 261° |
| 2026-05-06 12:11 | 35.91160 | 137.33681 | 32179 ft | 372 kts | 261° |
| 2026-05-06 12:12 | 35.90703 | 137.27340 | 32164 ft | 374 kts | 261° |
| 2026-05-06 12:12 | 35.90241 | 137.20958 | 32166 ft | 372 kts | 261° |
| 2026-05-06 12:13 | 35.89777 | 137.14607 | 32164 ft | 371 kts | 261° |
| 2026-05-06 12:13 | 35.89310 | 137.08266 | 32155 ft | 370 kts | 261° |
| 2026-05-06 12:14 | 35.88844 | 137.01986 | 32150 ft | 370 kts | 261° |
| 2026-05-06 12:14 | 35.88373 | 136.95674 | 32149 ft | 369 kts | 261° |
| 2026-05-06 12:15 | 35.87899 | 136.89382 | 32160 ft | 369 kts | 261° |
| 2026-05-06 12:15 | 35.87420 | 136.83076 | 32139 ft | 370 kts | 261° |
| 2026-05-06 12:16 | 35.86938 | 136.76769 | 32141 ft | 370 kts | 261° |
| 2026-05-06 12:16 | 35.86455 | 136.70493 | 32151 ft | 370 kts | 261° |
| 2026-05-06 12:17 | 35.85964 | 136.64153 | 32147 ft | 373 kts | 261° |
| 2026-05-06 12:17 | 35.85550 | 136.58841 | 32138 ft | 376 kts | 261° |
| 2026-05-06 12:18 | 35.85046 | 136.52406 | 32132 ft | 379 kts | 261° |
| 2026-05-06 12:18 | 35.84453 | 136.44888 | 32129 ft | 380 kts | 261° |
| 2026-05-06 12:19 | 35.84024 | 136.39488 | 32133 ft | 382 kts | 261° |
| 2026-05-06 12:19 | 35.83501 | 136.32961 | 32134 ft | 383 kts | 261° |
| 2026-05-06 12:20 | 35.82973 | 136.26412 | 32119 ft | 385 kts | 261° |
| 2026-05-06 12:20 | 35.82441 | 136.19846 | 32121 ft | 386 kts | 261° |
| 2026-05-06 12:21 | 35.81903 | 136.13265 | 32104 ft | 386 kts | 262° |
| 2026-05-06 12:21 | 35.81366 | 136.06723 | 32109 ft | 387 kts | 262° |
| 2026-05-06 12:22 | 35.80820 | 136.00121 | 32107 ft | 388 kts | 262° |
| 2026-05-06 12:22 | 35.80268 | 135.93500 | 32099 ft | 389 kts | 262° |
| 2026-05-06 12:23 | 35.79711 | 135.86860 | 32103 ft | 391 kts | 262° |
| 2026-05-06 12:23 | 35.79151 | 135.80236 | 32097 ft | 392 kts | 262° |
| 2026-05-06 12:24 | 35.78582 | 135.73537 | 32097 ft | 394 kts | 262° |
| 2026-05-06 12:24 | 35.78006 | 135.66806 | 32096 ft | 396 kts | 263° |
| 2026-05-06 12:25 | 35.77423 | 135.60046 | 32096 ft | 398 kts | 263° |
| 2026-05-06 12:25 | 35.76838 | 135.53295 | 32094 ft | 400 kts | 263° |
| 2026-05-06 12:26 | 35.76241 | 135.46460 | 32098 ft | 403 kts | 263° |
| 2026-05-06 12:26 | 35.75637 | 135.39581 | 32094 ft | 405 kts | 263° |
| 2026-05-06 12:27 | 35.75025 | 135.32662 | 32094 ft | 408 kts | 264° |
| 2026-05-06 12:27 | 35.74410 | 135.25748 | 32096 ft | 410 kts | 264° |
| 2026-05-06 12:28 | 35.73783 | 135.18745 | 32100 ft | 413 kts | 264° |
| 2026-05-06 12:28 | 35.73146 | 135.11699 | 32093 ft | 415 kts | 264° |
| 2026-05-06 12:29 | 35.72501 | 135.04612 | 32093 ft | 418 kts | 264° |
| 2026-05-06 12:29 | 35.71850 | 134.97494 | 32089 ft | 420 kts | 264° |
| 2026-05-06 12:30 | 35.71197 | 134.90392 | 32092 ft | 421 kts | 264° |
| 2026-05-06 12:30 | 35.70532 | 134.83216 | 32091 ft | 423 kts | 264° |
| 2026-05-06 12:31 | 35.69861 | 134.76017 | 32092 ft | 424 kts | 264° |
| 2026-05-06 12:31 | 35.69184 | 134.68805 | 32087 ft | 425 kts | 265° |
| 2026-05-06 12:32 | 35.68507 | 134.61628 | 32091 ft | 426 kts | 265° |
| 2026-05-06 12:32 | 35.67818 | 134.54384 | 32084 ft | 427 kts | 265° |
| 2026-05-06 12:33 | 35.67124 | 134.47128 | 32084 ft | 427 kts | 265° |
| 2026-05-06 12:33 | 35.66424 | 134.39859 | 32080 ft | 428 kts | 265° |
| 2026-05-06 12:34 | 35.65724 | 134.32634 | 32079 ft | 429 kts | 265° |
| 2026-05-06 12:34 | 35.65013 | 134.25347 | 32078 ft | 430 kts | 265° |
| 2026-05-06 12:35 | 35.64296 | 134.18044 | 32077 ft | 431 kts | 265° |
| 2026-05-06 12:35 | 35.63574 | 134.10731 | 32076 ft | 431 kts | 265° |
| 2026-05-06 12:36 | 35.62846 | 134.03402 | 32077 ft | 432 kts | 265° |
| 2026-05-06 12:36 | 35.62117 | 133.96116 | 32079 ft | 433 kts | 265° |
| 2026-05-06 12:37 | 35.61378 | 133.88768 | 32080 ft | 434 kts | 265° |
| 2026-05-06 12:37 | 35.60632 | 133.81405 | 32084 ft | 434 kts | 265° |
| 2026-05-06 12:38 | 35.59882 | 133.74037 | 32088 ft | 435 kts | 265° |
| 2026-05-06 12:38 | 35.59126 | 133.66663 | 32083 ft | 435 kts | 265° |
| 2026-05-06 12:39 | 35.58365 | 133.59285 | 32083 ft | 435 kts | 265° |
| 2026-05-06 12:39 | 35.57605 | 133.51960 | 32078 ft | 435 kts | 265° |
| 2026-05-06 12:40 | 35.56835 | 133.44582 | 32079 ft | 435 kts | 265° |
| 2026-05-06 12:40 | 35.56060 | 133.37207 | 32078 ft | 435 kts | 265° |
| 2026-05-06 12:41 | 35.55282 | 133.29837 | 32076 ft | 435 kts | 265° |
| 2026-05-06 12:41 | 35.54499 | 133.22469 | 32076 ft | 435 kts | 265° |
| 2026-05-06 12:42 | 35.53718 | 133.15154 | 32074 ft | 435 kts | 265° |
| 2026-05-06 12:42 | 35.52936 | 133.07797 | 32069 ft | 434 kts | 266° |
| 2026-05-06 12:43 | 35.52280 | 133.00440 | 32077 ft | 434 kts | 266° |
| 2026-05-06 12:43 | 35.51649 | 132.93072 | 32078 ft | 434 kts | 266° |
| 2026-05-06 12:44 | 35.50999 | 132.85751 | 32071 ft | 435 kts | 266° |
| 2026-05-06 12:44 | 35.50334 | 132.78379 | 32073 ft | 435 kts | 266° |
| 2026-05-06 12:45 | 35.49695 | 132.71005 | 32080 ft | 435 kts | 267° |
| 2026-05-06 12:46 | 35.48707 | 132.59944 | 32079 ft | 435 kts | 266° |
| 2026-05-06 12:46 | 35.48037 | 132.52621 | 32081 ft | 435 kts | 266° |
| 2026-05-06 12:47 | 35.47361 | 132.45243 | 32083 ft | 435 kts | 266° |
| 2026-05-06 12:47 | 35.46683 | 132.37870 | 32084 ft | 435 kts | 266° |
| 2026-05-06 12:48 | 35.46000 | 132.30497 | 32083 ft | 435 kts | 266° |
| 2026-05-06 12:48 | 35.45308 | 132.23121 | 32076 ft | 435 kts | 266° |
| 2026-05-06 12:49 | 35.44615 | 132.15790 | 32080 ft | 435 kts | 266° |
| 2026-05-06 12:49 | 35.43913 | 132.08414 | 32078 ft | 436 kts | 266° |
| 2026-05-06 12:50 | 35.43207 | 132.01036 | 32077 ft | 436 kts | 266° |
| 2026-05-06 12:50 | 35.42497 | 131.93658 | 32075 ft | 436 kts | 266° |
| 2026-05-06 12:51 | 35.41787 | 131.86323 | 32083 ft | 436 kts | 266° |
| 2026-05-06 12:51 | 35.41067 | 131.78938 | 32080 ft | 436 kts | 266° |
| 2026-05-06 12:52 | 35.40342 | 131.71555 | 32075 ft | 436 kts | 266° |
| 2026-05-06 12:52 | 35.39613 | 131.64172 | 32078 ft | 436 kts | 266° |
| 2026-05-06 12:53 | 35.38884 | 131.56836 | 32072 ft | 436 kts | 266° |
| 2026-05-06 12:53 | 35.38146 | 131.49459 | 32074 ft | 436 kts | 266° |
| 2026-05-06 12:54 | 35.37404 | 131.42076 | 32075 ft | 436 kts | 266° |
| 2026-05-06 12:54 | 35.36657 | 131.34702 | 32073 ft | 436 kts | 266° |
| 2026-05-06 12:55 | 35.35911 | 131.27378 | 32075 ft | 436 kts | 266° |
| 2026-05-06 12:55 | 35.35155 | 131.20010 | 32070 ft | 435 kts | 266° |
| 2026-05-06 12:56 | 35.34403 | 131.12723 | 32068 ft | 428 kts | 266° |
| 2026-05-06 12:56 | 35.33651 | 131.05472 | 31980 ft | 431 kts | 266° |
| 2026-05-06 12:56 | 35.33273 | 131.01836 | 31599 ft | 429 kts | 265° |
| 2026-05-06 12:57 | 35.32901 | 130.98287 | 31150 ft | 424 kts | 265° |
| 2026-05-06 12:57 | 35.32527 | 130.94720 | 30721 ft | 420 kts | 265° |
| 2026-05-06 12:57 | 35.32155 | 130.91184 | 30277 ft | 417 kts | 265° |
| 2026-05-06 12:57 | 35.31784 | 130.87671 | 29776 ft | 415 kts | 265° |
| 2026-05-06 12:58 | 35.31416 | 130.84183 | 29267 ft | 411 kts | 265° |
| 2026-05-06 12:58 | 35.31050 | 130.80730 | 28788 ft | 408 kts | 265° |
| 2026-05-06 12:58 | 35.30686 | 130.77305 | 28323 ft | 404 kts | 264° |
| 2026-05-06 12:58 | 35.30324 | 130.73914 | 27865 ft | 400 kts | 264° |
| 2026-05-06 12:59 | 35.29970 | 130.70595 | 27420 ft | 397 kts | 264° |
| 2026-05-06 12:59 | 35.29613 | 130.67263 | 26973 ft | 393 kts | 264° |
| 2026-05-06 12:59 | 35.29258 | 130.63958 | 26537 ft | 390 kts | 264° |
| 2026-05-06 12:59 | 35.28904 | 130.60677 | 26095 ft | 387 kts | 264° |
| 2026-05-06 13:00 | 35.28553 | 130.57424 | 25660 ft | 384 kts | 264° |
| 2026-05-06 13:00 | 35.28204 | 130.54192 | 25229 ft | 382 kts | 264° |
| 2026-05-06 13:00 | 35.27855 | 130.50982 | 24796 ft | 379 kts | 264° |
| 2026-05-06 13:00 | 35.27508 | 130.47793 | 24370 ft | 377 kts | 264° |
| 2026-05-06 13:01 | 35.27162 | 130.44615 | 23924 ft | 376 kts | 263° |
| 2026-05-06 13:01 | 35.26821 | 130.41500 | 23465 ft | 374 kts | 263° |
| 2026-05-06 13:01 | 35.26477 | 130.38356 | 22979 ft | 371 kts | 263° |
| 2026-05-06 13:01 | 35.26134 | 130.35242 | 22529 ft | 368 kts | 263° |
| 2026-05-06 13:02 | 35.25794 | 130.32154 | 22096 ft | 365 kts | 263° |
| 2026-05-06 13:02 | 35.25456 | 130.29094 | 21673 ft | 361 kts | 263° |
| 2026-05-06 13:02 | 35.25120 | 130.26058 | 21259 ft | 358 kts | 263° |
| 2026-05-06 13:02 | 35.24786 | 130.23050 | 20846 ft | 356 kts | 263° |
| 2026-05-06 13:03 | 35.24454 | 130.20063 | 20440 ft | 353 kts | 263° |
| 2026-05-06 13:03 | 35.24129 | 130.17140 | 20041 ft | 351 kts | 263° |
| 2026-05-06 13:03 | 35.23800 | 130.14196 | 19639 ft | 348 kts | 263° |
| 2026-05-06 13:03 | 35.23472 | 130.11267 | 19239 ft | 347 kts | 263° |
| 2026-05-06 13:04 | 35.23146 | 130.08356 | 18842 ft | 345 kts | 263° |
| 2026-05-06 13:04 | 35.22820 | 130.05456 | 18440 ft | 343 kts | 263° |
| 2026-05-06 13:04 | 35.22495 | 130.02569 | 17983 ft | 342 kts | 263° |
| 2026-05-06 13:04 | 35.22170 | 129.99694 | 17550 ft | 340 kts | 263° |
| 2026-05-06 13:05 | 35.21848 | 129.96843 | 17151 ft | 337 kts | 263° |
| 2026-05-06 13:05 | 35.21532 | 129.94051 | 16752 ft | 335 kts | 263° |
| 2026-05-06 13:05 | 35.21212 | 129.91241 | 16358 ft | 333 kts | 263° |
| 2026-05-06 13:05 | 35.20894 | 129.88448 | 15970 ft | 330 kts | 263° |
| 2026-05-06 13:06 | 35.20557 | 129.85678 | 15578 ft | 329 kts | 262° |
| 2026-05-06 13:06 | 35.20206 | 129.82920 | 15180 ft | 327 kts | 262° |
| 2026-05-06 13:06 | 35.19852 | 129.80176 | 14801 ft | 326 kts | 262° |
| 2026-05-06 13:06 | 35.19498 | 129.77445 | 14416 ft | 325 kts | 262° |
| 2026-05-06 13:07 | 35.19147 | 129.74724 | 14035 ft | 323 kts | 262° |
| 2026-05-06 13:07 | 35.18797 | 129.72012 | 13619 ft | 322 kts | 262° |
| 2026-05-06 13:07 | 35.18453 | 129.69346 | 13208 ft | 321 kts | 262° |
| 2026-05-06 13:07 | 35.18107 | 129.66663 | 12818 ft | 319 kts | 262° |
| 2026-05-06 13:08 | 35.17763 | 129.63997 | 12439 ft | 317 kts | 261° |
| 2026-05-06 13:08 | 35.17421 | 129.61350 | 12059 ft | 314 kts | 261° |
| 2026-05-06 13:08 | 35.17080 | 129.58718 | 11672 ft | 313 kts | 261° |
| 2026-05-06 13:08 | 35.16740 | 129.56099 | 11284 ft | 312 kts | 261° |
| 2026-05-06 13:09 | 35.16402 | 129.53490 | 10908 ft | 310 kts | 261° |
| 2026-05-06 13:09 | 35.16064 | 129.50895 | 10572 ft | 307 kts | 261° |
| 2026-05-06 13:09 | 35.15734 | 129.48362 | 10447 ft | 297 kts | 261° |
| 2026-05-06 13:09 | 35.15417 | 129.45931 | 10305 ft | 289 kts | 261° |
| 2026-05-06 13:10 | 35.15106 | 129.43548 | 10180 ft | 280 kts | 261° |
| 2026-05-06 13:10 | 35.14803 | 129.41234 | 10057 ft | 272 kts | 261° |
| 2026-05-06 13:10 | 35.14506 | 129.38970 | 9793 ft | 269 kts | 260° |
| 2026-05-06 13:10 | 35.14210 | 129.36721 | 9515 ft | 267 kts | 260° |
| 2026-05-06 13:11 | 35.13917 | 129.34491 | 9228 ft | 265 kts | 260° |
| 2026-05-06 13:11 | 35.13625 | 129.32276 | 8946 ft | 263 kts | 260° |
| 2026-05-06 13:11 | 35.13335 | 129.30074 | 8663 ft | 262 kts | 260° |
| 2026-05-06 13:11 | 35.13046 | 129.27887 | 8384 ft | 260 kts | 260° |
| 2026-05-06 13:12 | 35.12762 | 129.25738 | 8112 ft | 259 kts | 260° |
| 2026-05-06 13:12 | 35.12475 | 129.23572 | 7837 ft | 258 kts | 260° |
| 2026-05-06 13:12 | 35.12189 | 129.21417 | 7560 ft | 256 kts | 260° |
| 2026-05-06 13:12 | 35.11904 | 129.19271 | 7291 ft | 255 kts | 260° |
| 2026-05-06 13:13 | 35.11620 | 129.17135 | 7015 ft | 254 kts | 260° |
| 2026-05-06 13:13 | 35.11336 | 129.15007 | 6749 ft | 253 kts | 260° |
| 2026-05-06 13:13 | 35.11054 | 129.12887 | 6481 ft | 252 kts | 260° |
| 2026-05-06 13:13 | 35.10770 | 129.10765 | 6008 ft | 259 kts | 260° |
| 2026-05-06 13:14 | 35.10480 | 129.08596 | 5575 ft | 264 kts | 260° |
| 2026-05-06 13:14 | 35.10182 | 129.06372 | 5229 ft | 265 kts | 261° |
| 2026-05-06 13:14 | 35.09884 | 129.04150 | 4929 ft | 265 kts | 261° |
| 2026-05-06 13:14 | 35.09588 | 129.01940 | 4650 ft | 263 kts | 261° |
| 2026-05-06 13:15 | 35.09298 | 128.99779 | 4550 ft | 254 kts | 261° |
| 2026-05-06 13:15 | 35.09017 | 128.97689 | 4474 ft | 244 kts | 260° |
| 2026-05-06 13:15 | 35.08747 | 128.95687 | 4431 ft | 234 kts | 260° |
| 2026-05-06 13:15 | 35.08488 | 128.93774 | 4407 ft | 222 kts | 260° |
| 2026-05-06 13:16 | 35.08240 | 128.91937 | 4280 ft | 224 kts | 260° |
| 2026-05-06 13:16 | 35.07986 | 128.90060 | 4075 ft | 223 kts | 260° |
| 2026-05-06 13:16 | 35.07992 | 128.88187 | 3806 ft | 223 kts | 286° |
| 2026-05-06 13:16 | 35.08816 | 128.86620 | 3578 ft | 222 kts | 318° |
| 2026-05-06 13:17 | 35.10212 | 128.85829 | 3390 ft | 226 kts | 350° |
| 2026-05-06 13:17 | 35.11781 | 128.86149 | 2858 ft | 238 kts | 30° |
| 2026-05-06 13:17 | 35.13120 | 128.87278 | 2496 ft | 228 kts | 36° |
| 2026-05-06 13:17 | 35.14353 | 128.88396 | 2178 ft | 213 kts | 36° |
| 2026-05-06 13:18 | 35.15558 | 128.89280 | 1895 ft | 199 kts | 15° |
| 2026-05-06 13:18 | 35.16885 | 128.89370 | 1536 ft | 187 kts | 350° |
| 2026-05-06 13:18 | 35.18116 | 128.89205 | 1316 ft | 170 kts | 350° |
| 2026-05-06 13:18 | 35.19248 | 128.89056 | 1064 ft | 160 kts | 353° |
| 2026-05-06 13:19 | 35.20343 | 128.89040 | 948 ft | 157 kts | 3° |
| 2026-05-06 13:19 | 35.21397 | 128.89394 | 925 ft | 160 kts | 28° |
| 2026-05-06 13:19 | 35.22185 | 128.90324 | 942 ft | 160 kts | 65° |
| 2026-05-06 13:19 | 35.22336 | 128.91617 | 949 ft | 157 kts | 104° |
| 2026-05-06 13:20 | 35.21839 | 128.92783 | 809 ft | 156 kts | 133° |
| 2026-05-06 13:20 | 35.20959 | 128.93535 | 470 ft | 155 kts | 163° |
| 2026-05-06 13:20 | 35.19913 | 128.93683 | 152 ft | 149 kts | 175° |
| 2026-05-06 13:20 | 35.18926 | 128.93806 | 29 ft | 135 kts | 174° |
| 2026-05-06 13:21 | 35.18130 | 128.93908 | 19 ft | 93 kts | 173° |
| 2026-05-06 13:21 | 35.17642 | 128.93971 | 26 ft | 49 kts | 174° |
| 2026-05-06 13:21 | 35.17321 | 128.94012 | 25 ft | 44 kts | 174° |
| 2026-05-06 13:21 | 35.17079 | 128.94043 | 21 ft | 28 kts | 174° |
| 2026-05-06 13:22 | 35.16966 | 128.94130 | 23 ft | 20 kts | 95° |
| 2026-05-06 13:22 | 35.16979 | 128.94299 | 22 ft | 20 kts | 83° |
| 2026-05-06 13:22 | 35.17000 | 128.94461 | 24 ft | 19 kts | 68° |
| 2026-05-06 13:22 | 35.17115 | 128.94489 | 22 ft | 18 kts | 355° |
| 2026-05-06 13:23 | 35.17174 | 128.94543 | 22 ft | 11 kts | 87° |
| 2026-05-06 13:23 | 35.17174 | 128.94583 | 22 ft | 0 kts | 91° |